Terminal Aerodrome Forecast
Issued by NWS

Current Version | Previous Version | Text Only | Print | Product List | Glossary On
Versions: 1 2 3 4 5 6 7 8 9 10 11 12 13 14 15 16 17 18 19 20 21 22 23 24 25 26 27 28 29 30 31 32
000
FTUS43 KFGF 230148 AAA
TAFTVF
TAF AMD
KTVF 230148Z 2302/2324 29013KT P6SM SCT200
     FM230500 28011KT P6SM BKN100
     FM231000 29016KT P6SM BKN030
     FM231100 30016KT P6SM BKN015
     FM231400 30018G22KT P6SM BKN015
     FM232000 30017KT P6SM BKN035=

USA.gov is the U.S. government's official web portal to all federal, state and local government web resources and services.